createdAt,value
2018-08-03T00:00:59.372Z,25.92
2018-08-03T00:01:59.364Z,25.78
2018-08-03T00:02:59.372Z,25.71
2018-08-03T00:03:59.425Z,25.64
2018-08-03T00:04:59.545Z,25.65
2018-08-03T00:05:59.427Z,25.64
2018-08-03T00:06:59.368Z,25.65
2018-08-03T00:07:59.406Z,25.67
2018-08-03T00:08:59.396Z,25.67
2018-08-03T00:09:59.419Z,25.68
2018-08-03T00:10:59.391Z,25.7
2018-08-03T00:11:59.377Z,25.74
2018-08-03T00:12:59.399Z,25.74
2018-08-03T00:13:59.433Z,25.75
2018-08-03T00:14:59.413Z,25.75
2018-08-03T00:15:59.434Z,25.75
2018-08-03T00:16:59.412Z,25.77
2018-08-03T00:17:59.446Z,25.75
2018-08-03T00:18:59.425Z,25.75
2018-08-03T00:19:59.446Z,25.75
2018-08-03T00:20:59.407Z,25.77
2018-08-03T00:21:59.370Z,25.78
2018-08-03T00:22:59.389Z,25.8
2018-08-03T00:23:59.383Z,25.8
2018-08-03T00:24:59.424Z,25.75
2018-08-03T00:25:59.399Z,25.65
2018-08-03T00:26:59.386Z,25.7
2018-08-03T00:27:59.393Z,25.72
2018-08-03T00:28:59.402Z,25.72
2018-08-03T00:29:59.425Z,25.74
2018-08-03T00:30:59.409Z,25.74
2018-08-03T00:31:59.421Z,25.7
2018-08-03T00:32:59.407Z,25.67
2018-08-03T00:33:59.411Z,25.64
2018-08-03T00:34:59.472Z,25.7
2018-08-03T00:35:59.421Z,25.68
2018-08-03T00:36:59.445Z,25.67
2018-08-03T00:37:59.498Z,25.68
2018-08-03T00:38:59.429Z,25.68
2018-08-03T00:39:59.483Z,25.65
2018-08-03T00:40:59.414Z,25.61
2018-08-03T00:41:59.480Z,25.57
2018-08-03T00:42:59.410Z,25.6
2018-08-03T00:43:59.455Z,25.61
2018-08-03T00:44:59.491Z,25.63
2018-08-03T00:45:59.429Z,25.64
2018-08-03T00:46:59.479Z,25.64
2018-08-03T00:47:59.530Z,25.65
2018-08-03T00:48:59.486Z,25.65
2018-08-03T00:49:59.448Z,25.67
2018-08-03T00:50:59.483Z,25.67
2018-08-03T00:51:59.428Z,25.67
2018-08-03T00:52:59.527Z,25.71
2018-08-03T00:53:59.488Z,25.72
2018-08-03T00:54:59.471Z,25.7
2018-08-03T00:55:59.436Z,25.7
2018-08-03T00:56:59.650Z,25.7
2018-08-03T00:57:59.496Z,25.7
2018-08-03T00:58:59.503Z,25.7
2018-08-03T00:59:59.501Z,25.7
2018-08-03T01:00:59.564Z,25.72
2018-08-03T01:01:59.527Z,25.72
2018-08-03T01:02:59.501Z,25.74
2018-08-03T01:03:59.441Z,25.74
2018-08-03T01:04:59.463Z,25.75
2018-08-03T01:05:59.468Z,25.72
2018-08-03T01:06:59.504Z,25.72
2018-08-03T01:07:59.512Z,25.74
2018-08-03T01:08:59.472Z,25.74
2018-08-03T01:09:59.481Z,25.74
2018-08-03T01:10:59.475Z,25.74
2018-08-03T01:11:59.657Z,25.72
2018-08-03T01:12:59.524Z,25.74
2018-08-03T01:13:59.505Z,25.74
2018-08-03T01:14:59.513Z,25.72
2018-08-03T01:15:59.495Z,25.72
2018-08-03T01:16:59.496Z,25.74
2018-08-03T01:17:59.479Z,25.72
2018-08-03T01:18:59.640Z,25.7
2018-08-03T01:19:59.589Z,25.72
2018-08-03T01:20:59.460Z,25.71
2018-08-03T01:21:59.460Z,25.67
2018-08-03T01:22:59.483Z,25.7
2018-08-03T01:23:59.472Z,25.68
2018-08-03T01:24:59.571Z,25.67
2018-08-03T01:25:59.493Z,25.67
2018-08-03T01:26:59.620Z,25.65
2018-08-03T01:27:59.473Z,25.67
2018-08-03T01:28:59.522Z,25.65
2018-08-03T01:29:59.486Z,25.64
2018-08-03T01:30:59.485Z,25.65
2018-08-03T01:31:59.506Z,25.63
2018-08-03T01:32:59.482Z,25.63
2018-08-03T01:33:59.536Z,25.6
2018-08-03T01:34:59.494Z,25.61
2018-08-03T01:35:59.469Z,25.6
2018-08-03T01:36:59.555Z,25.58
2018-08-03T01:38:00.125Z,25.57
2018-08-03T01:38:59.480Z,25.56
2018-08-03T01:39:59.523Z,25.54
2018-08-03T01:40:59.494Z,25.54
2018-08-03T01:41:59.562Z,25.53
2018-08-03T01:42:59.505Z,25.54
2018-08-03T01:43:59.547Z,25.53
2018-08-03T01:44:59.528Z,25.51
2018-08-03T01:45:59.525Z,25.5
2018-08-03T01:46:59.519Z,25.48
2018-08-03T01:47:59.497Z,25.48
2018-08-03T01:48:59.503Z,25.47
2018-08-03T01:49:59.508Z,25.47
2018-08-03T01:50:59.708Z,25.41
2018-08-03T01:51:59.567Z,25.41
2018-08-03T01:52:59.517Z,25.4
2018-08-03T01:53:59.548Z,25.41
2018-08-03T01:54:59.530Z,25.37
2018-08-03T01:55:59.517Z,25.36
2018-08-03T01:56:59.515Z,25.36
2018-08-03T01:57:59.626Z,25.3
2018-08-03T01:58:59.703Z,25.29
2018-08-03T01:59:59.634Z,25.26
2018-08-03T02:00:59.594Z,25.25
2018-08-03T02:01:59.591Z,25.2
2018-08-03T02:02:59.608Z,25.15
2018-08-03T02:03:59.551Z,25.15
2018-08-03T02:04:59.693Z,25.13
2018-08-03T02:05:59.625Z,25.12
2018-08-03T02:06:59.604Z,25.08
2018-08-03T02:07:59.662Z,25.06
2018-08-03T02:08:59.853Z,25.08
2018-08-03T02:09:59.543Z,25.08
2018-08-03T02:10:59.619Z,25.01
2018-08-03T02:11:59.524Z,25.02
2018-08-03T02:12:59.532Z,24.95
2018-08-03T02:13:59.552Z,24.95
2018-08-03T02:14:59.656Z,24.95
2018-08-03T02:15:59.570Z,24.95
2018-08-03T02:16:59.632Z,24.89
2018-08-03T02:17:59.724Z,24.91
2018-08-03T02:18:59.662Z,24.92
2018-08-03T02:19:59.614Z,24.91
2018-08-03T02:20:59.751Z,24.92
2018-08-03T02:21:59.593Z,24.83
2018-08-03T02:22:59.618Z,24.85
2018-08-03T02:23:59.563Z,24.85
2018-08-03T02:24:59.592Z,24.89
2018-08-03T02:25:59.577Z,24.88
2018-08-03T02:26:59.703Z,24.89
2018-08-03T02:27:59.591Z,24.81
2018-08-03T02:28:59.629Z,24.78
2018-08-03T02:29:59.678Z,24.79
2018-08-03T02:30:59.552Z,24.81
2018-08-03T02:31:59.668Z,24.79
2018-08-03T02:32:59.582Z,24.82
2018-08-03T02:33:59.629Z,24.79
2018-08-03T02:34:59.674Z,24.81
2018-08-03T02:35:59.743Z,24.81
2018-08-03T02:36:59.836Z,24.79
2018-08-03T02:37:59.687Z,24.7
2018-08-03T02:38:59.578Z,24.71
2018-08-03T02:39:59.599Z,24.72
2018-08-03T02:40:59.581Z,24.74
2018-08-03T02:41:59.595Z,24.72
2018-08-03T02:42:59.648Z,24.74
2018-08-03T02:43:59.698Z,24.72
2018-08-03T02:44:59.602Z,24.72
2018-08-03T02:45:59.602Z,24.72
2018-08-03T02:46:59.608Z,24.71
2018-08-03T02:47:59.582Z,24.68
2018-08-03T02:48:59.598Z,24.7
2018-08-03T02:49:59.590Z,24.74
2018-08-03T02:50:59.582Z,24.72
2018-08-03T02:51:59.631Z,24.74
2018-08-03T02:52:59.622Z,24.75
2018-08-03T02:53:59.590Z,24.67
2018-08-03T02:54:59.664Z,24.65
2018-08-03T02:55:59.577Z,24.64
2018-08-03T02:56:59.626Z,24.63
2018-08-03T02:57:59.590Z,24.58
2018-08-03T02:58:59.608Z,24.6
2018-08-03T02:59:59.606Z,24.55
2018-08-03T03:00:59.620Z,24.57
2018-08-03T03:01:59.642Z,24.53
2018-08-03T03:02:59.641Z,24.5
2018-08-03T03:03:59.612Z,24.5
2018-08-03T03:04:59.593Z,24.46
2018-08-03T03:05:59.703Z,24.42
2018-08-03T03:06:59.653Z,24.42
2018-08-03T03:07:59.676Z,24.43
2018-08-03T03:08:59.660Z,24.42
2018-08-03T03:09:59.610Z,24.44
2018-08-03T03:10:59.616Z,24.43
2018-08-03T03:11:59.678Z,24.37
2018-08-03T03:12:59.727Z,24.4
2018-08-03T03:13:59.688Z,24.4
2018-08-03T03:14:59.704Z,24.39
2018-08-03T03:15:59.629Z,24.39
2018-08-03T03:16:59.615Z,24.33
2018-08-03T03:17:59.612Z,24.13
2018-08-03T03:18:59.625Z,24.13
2018-08-03T03:19:59.683Z,24.06
2018-08-03T03:20:59.638Z,24.06
2018-08-03T03:21:59.646Z,24.08
2018-08-03T03:22:59.621Z,24.1
2018-08-03T03:23:59.653Z,24.08
2018-08-03T03:24:59.754Z,24.06
2018-08-03T03:25:59.714Z,23.93
2018-08-03T03:26:59.839Z,23.95
2018-08-03T03:27:59.740Z,24.01
2018-08-03T03:28:59.659Z,24.01
2018-08-03T03:29:59.821Z,23.99
2018-08-03T03:30:59.712Z,23.99
2018-08-03T03:31:59.747Z,24.01
2018-08-03T03:32:59.674Z,24.01
2018-08-03T03:33:59.846Z,24.02
2018-08-03T03:34:59.645Z,23.96
2018-08-03T03:35:59.642Z,23.74
2018-08-03T03:36:59.648Z,23.73
2018-08-03T03:37:59.720Z,23.58
2018-08-03T03:38:59.664Z,23.65
2018-08-03T03:39:59.660Z,23.68
2018-08-03T03:40:59.845Z,23.65
2018-08-03T03:41:59.672Z,23.68
2018-08-03T03:42:59.732Z,23.69
2018-08-03T03:43:59.648Z,23.69
2018-08-03T03:44:59.706Z,23.68
2018-08-03T03:45:59.660Z,23.74
2018-08-03T03:46:59.810Z,23.74
2018-08-03T03:47:59.705Z,23.74
2018-08-03T03:48:59.658Z,23.75
2018-08-03T03:49:59.674Z,23.77
2018-08-03T03:50:59.955Z,23.77
2018-08-03T03:51:59.693Z,23.78
2018-08-03T03:52:59.665Z,23.78
2018-08-03T03:53:59.752Z,23.81
2018-08-03T03:54:59.781Z,23.82
2018-08-03T03:55:59.925Z,23.84
2018-08-03T03:56:59.753Z,23.84
2018-08-03T03:57:59.773Z,23.87
2018-08-03T03:58:59.735Z,23.89
2018-08-03T03:59:59.670Z,23.89
2018-08-03T04:00:59.661Z,23.89
2018-08-03T04:01:59.660Z,23.91
2018-08-03T04:02:59.684Z,23.89
2018-08-03T04:03:59.691Z,23.92
2018-08-03T04:04:59.680Z,23.93
2018-08-03T04:05:59.684Z,23.92
2018-08-03T04:06:59.679Z,23.95
2018-08-03T04:07:59.704Z,23.95
2018-08-03T04:08:59.708Z,23.95
2018-08-03T04:09:59.688Z,23.93
2018-08-03T04:11:00.053Z,23.98
2018-08-03T04:11:59.723Z,23.96
2018-08-03T04:12:59.687Z,23.98
2018-08-03T04:13:59.680Z,23.98
2018-08-03T04:14:59.682Z,23.96
2018-08-03T04:15:59.694Z,23.98
2018-08-03T04:16:59.711Z,23.96
2018-08-03T04:17:59.691Z,23.92
2018-08-03T04:18:59.698Z,23.96
2018-08-03T04:19:59.722Z,23.92
2018-08-03T04:20:59.721Z,23.93
2018-08-03T04:21:59.690Z,23.95
2018-08-03T04:22:59.688Z,23.95
2018-08-03T04:23:59.711Z,23.96
2018-08-03T04:24:59.883Z,23.96
2018-08-03T04:25:59.704Z,23.98
2018-08-03T04:26:59.904Z,23.98
2018-08-03T04:27:59.747Z,24.02
2018-08-03T04:28:59.775Z,24.01
2018-08-03T04:29:59.771Z,23.99
2018-08-03T04:30:59.716Z,23.99
2018-08-03T04:31:59.721Z,23.99
2018-08-03T04:32:59.693Z,24.02
2018-08-03T04:33:59.773Z,23.99
2018-08-03T04:34:59.779Z,23.99
2018-08-03T04:35:59.718Z,24.01
2018-08-03T04:36:59.799Z,24.01
2018-08-03T04:37:59.723Z,23.99
2018-08-03T04:38:59.860Z,24.02
2018-08-03T04:39:59.748Z,23.99
2018-08-03T04:40:59.737Z,24.01
2018-08-03T04:41:59.738Z,24.01
2018-08-03T04:42:59.749Z,24.05
2018-08-03T04:43:59.740Z,24.05
2018-08-03T04:44:59.748Z,24.05
2018-08-03T04:45:59.756Z,24.06
2018-08-03T04:46:59.864Z,24.05
2018-08-03T04:47:59.766Z,24.09
2018-08-03T04:48:59.735Z,24.09
2018-08-03T04:49:59.808Z,24.1
2018-08-03T04:50:59.815Z,24.09
2018-08-03T04:51:59.788Z,24.1
2018-08-03T04:52:59.762Z,24.1
2018-08-03T04:53:59.788Z,24.13
2018-08-03T04:54:59.790Z,24.13
2018-08-03T04:55:59.789Z,24.13
2018-08-03T04:56:59.741Z,24.12
2018-08-03T04:57:59.767Z,24.12
2018-08-03T04:58:59.779Z,24.13
2018-08-03T05:00:00.072Z,24.12
2018-08-03T05:00:59.777Z,24.13
2018-08-03T05:01:59.760Z,24.15
2018-08-03T05:02:59.905Z,24.15
2018-08-03T05:03:59.782Z,24.16
2018-08-03T05:04:59.771Z,24.16
2018-08-03T05:05:59.788Z,24.19
2018-08-03T05:06:59.771Z,24.17
2018-08-03T05:07:59.933Z,24.21
2018-08-03T05:08:59.808Z,24.19
2018-08-03T05:09:59.851Z,24.23
2018-08-03T05:10:59.759Z,24.21
2018-08-03T05:11:59.773Z,24.23
2018-08-03T05:12:59.835Z,24.24
2018-08-03T05:13:59.765Z,24.27
2018-08-03T05:14:59.767Z,24.29
2018-08-03T05:15:59.794Z,24.29
2018-08-03T05:16:59.762Z,24.29
2018-08-03T05:17:59.777Z,24.3
2018-08-03T05:18:59.834Z,24.29
2018-08-03T05:19:59.788Z,24.3
2018-08-03T05:20:59.777Z,24.3
2018-08-03T05:21:59.793Z,24.33
2018-08-03T05:22:59.945Z,24.3
2018-08-03T05:23:59.829Z,24.35
2018-08-03T05:24:59.787Z,24.35
2018-08-03T05:25:59.770Z,24.36
2018-08-03T05:26:59.772Z,24.35
2018-08-03T05:27:59.781Z,24.35
2018-08-03T05:28:59.807Z,24.36
2018-08-03T05:29:59.785Z,24.37
2018-08-03T05:30:59.820Z,24.39
2018-08-03T05:31:59.853Z,24.42
2018-08-03T05:32:59.800Z,24.43
2018-08-03T05:33:59.816Z,24.47
2018-08-03T05:34:59.838Z,24.47
2018-08-03T05:36:00.288Z,24.51
2018-08-03T05:36:59.777Z,24.51
2018-08-03T05:37:59.852Z,24.55
2018-08-03T05:38:59.934Z,24.54
2018-08-03T05:39:59.810Z,24.53
2018-08-03T05:40:59.970Z,24.58
2018-08-03T05:41:59.812Z,24.58
2018-08-03T05:42:59.931Z,24.58
2018-08-03T05:43:59.846Z,24.63
2018-08-03T05:44:59.840Z,24.61
2018-08-03T05:45:59.796Z,24.61
2018-08-03T05:47:00.343Z,24.61
2018-08-03T05:47:59.847Z,24.61
2018-08-03T05:48:59.982Z,24.6
2018-08-03T05:50:00.300Z,24.64
2018-08-03T05:50:59.895Z,24.67
2018-08-03T05:51:59.826Z,24.7
2018-08-03T05:52:59.825Z,24.72
2018-08-03T05:53:59.811Z,24.72
2018-08-03T05:55:00.015Z,24.74
2018-08-03T05:55:59.816Z,24.78
2018-08-03T05:56:59.830Z,24.78
2018-08-03T05:58:00.145Z,24.78
2018-08-03T05:59:00.082Z,24.81
2018-08-03T05:59:59.863Z,24.83
2018-08-03T06:00:59.901Z,24.88
2018-08-03T06:01:59.840Z,24.86
2018-08-03T06:02:59.965Z,24.88
2018-08-03T06:04:00.076Z,24.92
2018-08-03T06:04:59.821Z,24.95
2018-08-03T06:06:00.061Z,24.92
2018-08-03T06:06:59.888Z,24.94
2018-08-03T06:07:59.877Z,24.97
2018-08-03T06:08:59.848Z,24.98
2018-08-03T06:09:59.848Z,24.98
2018-08-03T06:10:59.978Z,24.99
2018-08-03T06:11:59.864Z,25.03
2018-08-03T06:12:59.868Z,25.05
2018-08-03T06:14:00.027Z,25.06
2018-08-03T06:14:59.989Z,25.08
2018-08-03T06:15:59.857Z,25.08
2018-08-03T06:16:59.917Z,25.1
2018-08-03T06:17:59.938Z,25.1
2018-08-03T06:19:00.176Z,25.1
2018-08-03T06:19:59.855Z,25.1
2018-08-03T06:20:59.917Z,25.09
2018-08-03T06:21:59.970Z,25.12
2018-08-03T06:22:59.843Z,25.15
2018-08-03T06:24:00.000Z,25.16
2018-08-03T06:25:00.000Z,25.17
2018-08-03T06:26:00.195Z,25.19
2018-08-03T06:27:00.035Z,25.19
2018-08-03T06:28:00.463Z,25.22
2018-08-03T06:28:59.932Z,25.26
2018-08-03T06:30:00.091Z,25.27
2018-08-03T06:30:59.933Z,25.29
2018-08-03T06:31:59.879Z,25.32
2018-08-03T06:32:59.870Z,25.32
2018-08-03T06:33:59.884Z,25.34
2018-08-03T06:34:59.874Z,25.33
2018-08-03T06:35:59.899Z,25.33
2018-08-03T06:36:59.897Z,25.36
2018-08-03T06:37:59.881Z,25.37
2018-08-03T06:38:59.914Z,25.41
2018-08-03T06:39:59.894Z,25.4
2018-08-03T06:40:59.897Z,25.41
2018-08-03T06:41:59.886Z,25.41
2018-08-03T06:42:59.920Z,25.43
2018-08-03T06:43:59.883Z,25.43
2018-08-03T06:44:59.927Z,25.44
2018-08-03T06:45:59.893Z,25.47
2018-08-03T06:46:59.895Z,25.51
2018-08-03T06:47:59.896Z,25.53
2018-08-03T06:48:59.911Z,25.54
2018-08-03T06:49:59.923Z,25.56
2018-08-03T06:50:59.948Z,25.58
2018-08-03T06:51:59.945Z,25.63
2018-08-03T06:52:59.921Z,25.63
2018-08-03T06:54:00.057Z,25.68
2018-08-03T06:54:59.912Z,25.65
2018-08-03T06:56:00.089Z,25.64
2018-08-03T06:56:59.965Z,25.65
2018-08-03T06:57:59.919Z,25.68
2018-08-03T06:59:00.156Z,25.68
2018-08-03T07:00:00.072Z,25.67
2018-08-03T07:00:59.963Z,25.71
2018-08-03T07:01:59.910Z,25.75
2018-08-03T07:03:00.496Z,25.8
2018-08-03T07:04:00.051Z,25.8
2018-08-03T07:04:59.966Z,25.81
2018-08-03T07:05:59.977Z,25.85
2018-08-03T07:06:59.933Z,25.88
2018-08-03T07:07:59.922Z,25.91
2018-08-03T07:08:59.983Z,25.93
2018-08-03T07:09:59.972Z,25.98
2018-08-03T07:11:00.054Z,25.99
2018-08-03T07:11:59.952Z,26.02
2018-08-03T07:13:00.093Z,26.02
2018-08-03T07:13:59.965Z,26.08
2018-08-03T07:15:00.350Z,26.09
2018-08-03T07:16:00.024Z,26.1
2018-08-03T07:16:59.936Z,26.08
2018-08-03T07:17:59.953Z,26.06
2018-08-03T07:19:00.093Z,26.09
2018-08-03T07:20:00.409Z,26.08
2018-08-03T07:20:59.969Z,26.1
2018-08-03T07:21:59.929Z,26.12
2018-08-03T07:22:59.944Z,26.19
2018-08-03T07:23:59.989Z,26.23
2018-08-03T07:24:59.967Z,26.29
2018-08-03T07:26:00.187Z,26.3
2018-08-03T07:26:59.991Z,26.34
2018-08-03T07:27:59.961Z,26.37
2018-08-03T07:28:59.985Z,26.34
2018-08-03T07:29:59.967Z,26.4
2018-08-03T07:31:00.163Z,26.4
2018-08-03T07:31:59.996Z,26.44
2018-08-03T07:33:00.156Z,26.48
2018-08-03T07:33:59.993Z,26.54
2018-08-03T07:34:59.991Z,26.57
2018-08-03T07:36:00.011Z,26.65
2018-08-03T07:37:00.377Z,26.64
2018-08-03T07:37:59.963Z,26.68
2018-08-03T07:39:00.036Z,26.7
2018-08-03T07:40:00.196Z,26.72
2018-08-03T07:40:59.982Z,26.78
2018-08-03T07:41:59.979Z,26.82
2018-08-03T07:43:00.379Z,26.84
2018-08-03T07:44:00.077Z,26.88
2018-08-03T07:45:00.232Z,26.91
2018-08-03T07:46:00.041Z,26.96
2018-08-03T07:46:59.990Z,26.99
2018-08-03T07:47:59.996Z,27.02
2018-08-03T07:48:59.977Z,27.03
2018-08-03T07:50:00.003Z,27.12
2018-08-03T07:50:59.984Z,27.15
2018-08-03T07:52:00.029Z,27.17
2018-08-03T07:53:00.012Z,27.2
2018-08-03T07:54:00.000Z,27.24
2018-08-03T07:54:59.969Z,27.34
2018-08-03T07:55:59.977Z,27.4
2018-08-03T07:56:59.975Z,27.37
2018-08-03T07:57:59.980Z,27.37
2018-08-03T07:58:59.991Z,27.44
2018-08-03T08:00:00.010Z,27.4
2018-08-03T08:00:59.975Z,27.39
2018-08-03T08:01:59.984Z,27.39
2018-08-03T08:03:00.046Z,27.53
2018-08-03T08:04:00.032Z,27.51
2018-08-03T08:05:00.004Z,27.54
2018-08-03T08:06:00.025Z,27.56
2018-08-03T08:07:00.005Z,27.62
2018-08-03T08:08:00.035Z,27.71
2018-08-03T08:09:00.045Z,27.67
2018-08-03T08:10:00.066Z,27.7
2018-08-03T08:11:00.182Z,27.75
2018-08-03T08:12:00.087Z,27.81
2018-08-03T08:13:00.146Z,27.81
2018-08-03T08:14:00.837Z,27.84
2018-08-03T08:15:00.375Z,27.93
2018-08-03T08:16:00.095Z,27.95
2018-08-03T08:17:00.456Z,27.99
2018-08-03T08:18:00.026Z,28.06
2018-08-03T08:19:00.073Z,28.13
2018-08-03T08:20:00.039Z,28.05
2018-08-03T08:21:00.029Z,28.05
2018-08-03T08:22:00.124Z,28.11
2018-08-03T08:23:00.079Z,28.12
2018-08-03T08:24:00.047Z,28.15
2018-08-03T08:25:00.129Z,28.12
2018-08-03T08:26:00.399Z,28.16
2018-08-03T08:27:00.063Z,28.15
2018-08-03T08:28:00.229Z,28.18
2018-08-03T08:29:00.082Z,28.18
2018-08-03T08:30:00.106Z,28.13
2018-08-03T08:31:00.152Z,28.13
2018-08-03T08:32:00.171Z,28.22
2018-08-03T08:33:00.137Z,28.43
2018-08-03T08:34:00.110Z,28.43
2018-08-03T08:35:00.133Z,28.39
2018-08-03T08:36:00.081Z,28.39
2018-08-03T08:37:00.361Z,28.41
2018-08-03T08:38:00.101Z,28.46
2018-08-03T08:39:00.400Z,28.55
2018-08-03T08:40:00.123Z,28.63
2018-08-03T08:41:00.139Z,28.63
2018-08-03T08:42:00.135Z,28.67
2018-08-03T08:43:00.120Z,28.68
2018-08-03T08:44:00.485Z,28.71
2018-08-03T08:45:00.172Z,28.66
2018-08-03T08:46:00.164Z,28.74
2018-08-03T08:47:00.139Z,28.73
2018-08-03T08:48:00.138Z,28.82
2018-08-03T08:49:00.125Z,28.84
2018-08-03T08:50:00.142Z,28.86
2018-08-03T08:51:00.360Z,28.86
2018-08-03T08:52:00.241Z,28.94
2018-08-03T08:53:00.359Z,29.03
2018-08-03T08:54:00.085Z,29.09
2018-08-03T08:55:00.114Z,29.12
2018-08-03T08:56:00.215Z,29.13
2018-08-03T08:57:00.125Z,29.05
2018-08-03T08:58:00.140Z,29.1
2018-08-03T08:59:00.619Z,29.16
2018-08-03T09:00:00.117Z,29.19
2018-08-03T09:01:00.463Z,29.22
2018-08-03T09:02:00.189Z,29.23
2018-08-03T09:03:00.167Z,29.29
2018-08-03T09:04:00.162Z,29.33
2018-08-03T09:05:00.120Z,29.36
2018-08-03T09:06:00.194Z,29.39
2018-08-03T09:07:00.192Z,29.44
2018-08-03T09:08:00.117Z,29.48
2018-08-03T09:09:00.124Z,29.51
2018-08-03T09:10:00.104Z,29.57
2018-08-03T09:11:00.185Z,29.6
2018-08-03T09:12:00.152Z,29.68
2018-08-03T09:13:00.349Z,29.71
2018-08-03T09:14:00.234Z,29.69
2018-08-03T09:15:00.172Z,29.75
2018-08-03T09:16:00.184Z,29.79
2018-08-03T09:17:00.151Z,29.82
2018-08-03T09:18:00.204Z,29.87
2018-08-03T09:19:00.160Z,29.94
2018-08-03T09:20:00.356Z,29.96
2018-08-03T09:21:00.188Z,29.88
2018-08-03T09:22:00.441Z,29.92
2018-08-03T09:23:00.188Z,29.95
2018-08-03T09:24:00.233Z,29.98
2018-08-03T09:25:00.130Z,29.98
2018-08-03T09:26:00.233Z,30.02
2018-08-03T09:27:00.122Z,30.02
2018-08-03T09:28:00.324Z,30.06
2018-08-03T09:29:00.180Z,30.12
2018-08-03T09:30:00.203Z,30.12
2018-08-03T09:31:00.454Z,30.08
2018-08-03T09:32:00.286Z,30.09
2018-08-03T09:33:00.304Z,30.13
2018-08-03T09:34:00.737Z,30.18
2018-08-03T09:35:00.215Z,30.2
2018-08-03T09:36:00.557Z,30.24
2018-08-03T09:37:00.182Z,30.33
2018-08-03T09:38:00.225Z,30.36
2018-08-03T09:39:00.221Z,30.48
2018-08-03T09:40:02.336Z,30.47
2018-08-03T09:41:00.254Z,30.41
2018-08-03T09:42:00.104Z,30.41
2018-08-03T09:43:01.071Z,30.43
2018-08-03T09:44:00.327Z,30.46
2018-08-03T09:45:00.506Z,30.48
2018-08-03T09:46:00.284Z,30.39
2018-08-03T09:47:00.401Z,30.34
2018-08-03T09:48:00.305Z,30.37
2018-08-03T09:49:00.144Z,30.43
2018-08-03T09:50:00.651Z,30.4
2018-08-03T09:51:00.388Z,30.46
2018-08-03T09:52:00.210Z,30.47
2018-08-03T09:53:00.177Z,30.46
2018-08-03T09:54:00.665Z,30.61
2018-08-03T09:55:00.564Z,30.64
2018-08-03T09:56:00.279Z,30.7
2018-08-03T09:57:00.187Z,30.77
2018-08-03T09:58:00.310Z,30.77
2018-08-03T09:59:00.247Z,30.86
2018-08-03T10:00:00.171Z,30.89
2018-08-03T10:01:00.225Z,30.96
2018-08-03T10:02:00.153Z,30.99
2018-08-03T10:03:00.291Z,31.01
2018-08-03T10:04:00.335Z,31.12
2018-08-03T10:05:00.411Z,31.03
2018-08-03T10:06:00.217Z,31.01
2018-08-03T10:07:00.184Z,31.01
2018-08-03T10:08:00.205Z,31.09
2018-08-03T10:09:00.146Z,31.1
2018-08-03T10:10:00.177Z,31.15
2018-08-03T10:11:00.184Z,31.22
2018-08-03T10:12:00.355Z,31.27
2018-08-03T10:13:00.213Z,31.33
2018-08-03T10:14:00.806Z,31.36
2018-08-03T10:15:00.219Z,31.4
2018-08-03T10:16:00.224Z,31.43
2018-08-03T10:17:00.193Z,31.46
2018-08-03T10:18:00.185Z,31.47
2018-08-03T10:19:00.232Z,31.48
2018-08-03T10:20:00.345Z,31.53
2018-08-03T10:21:00.145Z,31.5
2018-08-03T10:22:00.212Z,31.53
2018-08-03T10:23:00.179Z,31.53
2018-08-03T10:24:00.234Z,31.55
2018-08-03T10:25:00.194Z,31.59
2018-08-03T10:26:00.235Z,31.74
2018-08-03T10:27:00.222Z,31.7
2018-08-03T10:28:00.225Z,31.74
2018-08-03T10:29:00.330Z,31.91
2018-08-03T10:30:00.208Z,31.85
2018-08-03T10:31:00.277Z,31.93
2018-08-03T10:32:00.249Z,31.91
2018-08-03T10:33:00.218Z,32.15
2018-08-03T10:34:00.211Z,32.15
2018-08-03T10:35:00.408Z,32.2
2018-08-03T10:36:00.300Z,32.22
2018-08-03T10:37:00.318Z,32.11
2018-08-03T10:38:00.190Z,32.08
2018-08-03T10:39:00.266Z,32.12
2018-08-03T10:40:00.240Z,32.11
2018-08-03T10:41:00.205Z,32.18
2018-08-03T10:42:00.244Z,32.32
2018-08-03T10:43:00.796Z,32.46
2018-08-03T10:44:00.204Z,32.46
2018-08-03T10:45:00.459Z,32.5
2018-08-03T10:46:00.309Z,32.47
2018-08-03T10:47:00.467Z,32.49
2018-08-03T10:48:00.470Z,32.53
2018-08-03T10:49:00.417Z,32.46
2018-08-03T10:50:00.234Z,32.36
2018-08-03T10:51:00.243Z,32.37
2018-08-03T10:52:00.277Z,32.47
2018-08-03T10:53:00.255Z,32.53
2018-08-03T10:54:00.266Z,32.59
2018-08-03T10:55:00.300Z,32.61
2018-08-03T10:56:00.315Z,32.69
2018-08-03T10:57:00.324Z,32.7
2018-08-03T10:58:00.358Z,32.74
2018-08-03T10:59:00.266Z,32.74
2018-08-03T11:00:00.287Z,32.81
2018-08-03T11:01:00.404Z,32.84
2018-08-03T11:02:00.263Z,32.87
2018-08-03T11:03:00.463Z,32.85
2018-08-03T11:04:00.340Z,32.87
2018-08-03T11:05:00.288Z,32.97
2018-08-03T11:06:00.231Z,32.95
2018-08-03T11:07:00.214Z,32.92
2018-08-03T11:08:00.286Z,32.94
2018-08-03T11:09:00.427Z,33.02
2018-08-03T11:10:00.283Z,33.11
2018-08-03T11:11:00.419Z,33.19
2018-08-03T11:12:00.233Z,33.18
2018-08-03T11:13:00.251Z,33.19
2018-08-03T11:14:06.475Z,33.22
2018-08-03T11:15:00.287Z,33.23
2018-08-03T11:16:00.413Z,33.32
2018-08-03T11:17:00.234Z,33.37
2018-08-03T11:18:00.240Z,33.37
2018-08-03T11:19:00.416Z,33.45
2018-08-03T11:20:00.283Z,33.45
2018-08-03T11:21:00.365Z,33.48
2018-08-03T11:22:00.332Z,33.49
2018-08-03T11:23:00.288Z,33.52
2018-08-03T11:24:00.488Z,33.55
2018-08-03T11:25:00.360Z,33.59
2018-08-03T11:26:00.306Z,33.66
2018-08-03T11:27:00.245Z,33.67
2018-08-03T11:28:00.370Z,33.68
2018-08-03T11:29:00.401Z,33.74
2018-08-03T11:30:00.399Z,33.77
2018-08-03T11:31:00.319Z,33.67
2018-08-03T11:32:00.468Z,33.55
2018-08-03T11:33:00.562Z,33.52
2018-08-03T11:34:00.250Z,33.6
2018-08-03T11:35:00.280Z,33.64
2018-08-03T11:36:00.290Z,33.68
2018-08-03T11:37:00.294Z,33.73
2018-08-03T11:38:00.444Z,33.77
2018-08-03T11:39:00.458Z,33.81
2018-08-03T11:40:00.467Z,33.85
2018-08-03T11:41:00.467Z,33.93
2018-08-03T11:42:00.371Z,33.97
2018-08-03T11:43:00.383Z,33.98
2018-08-03T11:44:00.292Z,34.01
2018-08-03T11:45:00.496Z,34.07
2018-08-03T11:46:00.344Z,34.11
2018-08-03T11:47:00.405Z,34.19
2018-08-03T11:48:00.415Z,34.23
2018-08-03T11:49:00.481Z,34.26
2018-08-03T11:50:00.426Z,34.29
2018-08-03T11:51:04.569Z,34.3
2018-08-03T11:52:00.488Z,34.32
2018-08-03T11:53:00.374Z,34.42
2018-08-03T11:54:00.549Z,34.48
2018-08-03T11:55:00.466Z,34.5
2018-08-03T11:56:00.464Z,34.48
2018-08-03T11:57:04.882Z,34.43
2018-08-03T11:58:00.383Z,34.4
2018-08-03T11:59:00.384Z,34.23
2018-08-03T12:00:00.514Z,34.22
2018-08-03T12:01:01.427Z,34.26
2018-08-03T12:02:00.791Z,34.32
2018-08-03T12:03:00.618Z,34.4
2018-08-03T12:04:04.314Z,34.46
2018-08-03T12:05:00.545Z,34.5
2018-08-03T12:06:00.436Z,34.53
2018-08-03T12:07:00.440Z,34.6
2018-08-03T12:08:00.334Z,34.63
2018-08-03T12:09:00.315Z,34.67
2018-08-03T12:10:00.431Z,34.71
2018-08-03T12:11:00.336Z,34.74
2018-08-03T12:12:00.358Z,34.76
2018-08-03T12:13:00.484Z,34.79
2018-08-03T12:14:00.496Z,34.83
2018-08-03T12:15:01.543Z,34.84
2018-08-03T12:16:00.406Z,34.8
2018-08-03T12:17:00.611Z,34.83
2018-08-03T12:18:01.032Z,34.86
2018-08-03T12:19:00.433Z,34.89
2018-08-03T12:20:00.553Z,34.93
2018-08-03T12:21:00.428Z,34.95
2018-08-03T12:22:00.546Z,34.91
2018-08-03T12:23:00.443Z,34.98
2018-08-03T12:24:01.485Z,35.01
2018-08-03T12:25:00.495Z,35.01
2018-08-03T12:26:00.475Z,35.02
2018-08-03T12:27:00.476Z,35.05
2018-08-03T12:28:01.411Z,35.08
2018-08-03T12:29:00.389Z,35.01
2018-08-03T12:30:00.605Z,35.02
2018-08-03T12:31:00.402Z,35.05
2018-08-03T12:32:00.614Z,35.08
2018-08-03T12:33:00.377Z,35.07
2018-08-03T12:34:00.358Z,35.01
2018-08-03T12:35:00.670Z,34.95
2018-08-03T12:36:00.455Z,35.02
2018-08-03T12:37:00.523Z,34.98
2018-08-03T12:38:00.382Z,34.95
2018-08-03T12:39:00.458Z,35.05
2018-08-03T12:40:00.590Z,35.07
2018-08-03T12:41:01.552Z,35.11
2018-08-03T12:42:00.584Z,35.12
2018-08-03T12:43:04.276Z,35.18
2018-08-03T12:44:00.497Z,35.27
2018-08-03T12:45:00.597Z,35.32
2018-08-03T12:46:00.806Z,35.29
2018-08-03T12:47:00.531Z,35.32
2018-08-03T12:48:00.379Z,35.32
2018-08-03T12:49:00.424Z,35.35
2018-08-03T12:50:00.390Z,35.35
2018-08-03T12:51:00.365Z,35.39
2018-08-03T12:52:00.367Z,35.41
2018-08-03T12:53:00.889Z,35.41
2018-08-03T12:54:01.646Z,35.44
2018-08-03T12:55:00.462Z,35.45
2018-08-03T12:56:00.385Z,35.44